Latest Weather Observations for Mount Gellibrand

IDV60801

Issued at 6:05 pm EST Thursday 21 August 2014 (issued every 30 minutes, with the page automatically refreshed every 10 minutes)

About weather observations | Map of weather stations | Latest weather observations for VIC | Other Formats
Station Details ID: 090035 Name: MOUNT GELLIBRAND Lat: -38.23 Lon: 143.79 Height: 261.0 m
Data from the previous 72 hours. | See also: Recent months at Mount Gellibrand
Date/Time
EST
Temp
°C
App
Temp
°C
Dew
Point
Rel
Hum
%
Delta-T
°C
Wind Press
QNH
hPa
Press
MSL
hPa
Rain
since 9 am
mm
Dir
 
Spd
km/h
Gust
km/h
Spd
kts
Gust
kts
21/06:00pm 10.0 7.0 7.8 86 1.1 E 13 15 7 8 1027.6 1028.1 0.0
21/05:30pm 10.0 6.6 7.6 85 1.2 E 15 17 8 9 1027.4 1027.8 0.0
21/05:00pm 10.6 6.8 7.7 82 1.4 ESE 17 20 9 11 1027.1 1027.5 0.0
21/04:30pm 11.0 7.9 7.1 77 1.9 E 13 17 7 9 1026.9 1027.3 0.0
21/04:00pm 11.4 7.8 6.7 73 2.2 E 15 17 8 9 1026.8 1027.2 0.0
21/03:30pm 11.7 8.2 7.0 73 2.3 ENE 15 17 8 9 1026.7 1027.1 0.0
21/03:00pm 11.9 8.3 6.8 71 2.5 ENE 15 19 8 10 1026.7 1027.1 0.0
21/02:30pm 11.7 8.4 6.6 71 2.5 ENE 13 15 7 8 1026.8 1027.2 0.0
21/02:00pm 11.9 8.6 6.6 70 2.5 ENE 13 15 7 8 1026.8 1027.2 0.0
21/01:30pm 11.8 8.2 6.7 71 2.5 NE 15 20 8 11 1027.1 1027.5 0.0
21/01:00pm 11.8 8.2 6.9 72 2.4 NE 15 24 8 13 1027.4 1027.8 0.0
21/12:30pm 11.3 7.6 8.0 80 1.6 ENE 17 20 9 11 1027.7 1028.2 0.0
21/12:00pm 11.0 6.8 7.5 79 1.7 ENE 19 22 10 12 1028.1 1028.5 0.0
21/11:30am 9.9 6.4 7.3 84 1.3 ENE 15 20 8 11 1028.4 1028.8 0.0
21/11:00am 9.5 5.5 6.8 83 1.3 ENE 17 20 9 11 1028.7 1029.1 0.0
21/10:30am 8.9 4.8 6.3 84 1.2 ENE 17 20 9 11 1028.8 1029.2 0.0
21/10:00am 7.2 3.9 6.3 94 0.4 ENE 13 17 7 9 1028.9 1029.3 0.0
21/09:30am 7.7 4.4 6.3 91 0.6 ENE 13 19 7 10 1028.9 1029.3 0.0
21/09:00am 7.8 4.9 6.6 92 0.6 E 11 15 6 8 1028.9 1029.3 0.0
21/08:30am 7.2 3.1 6.3 94 0.4 ESE 17 19 9 10 1028.7 1029.1 0.0
21/08:00am 6.5 2.8 6.1 97 0.2 SE 15 19 8 10 1028.3 1028.7 0.0
21/07:30am 6.3 2.5 5.9 97 0.2 ESE 15 17 8 9 1028.1 1028.5 0.0
21/07:00am 6.1 3.0 5.7 97 0.2 ESE 11 13 6 7 1028.0 1028.4 0.0
21/06:30am 6.1 3.0 5.7 97 0.2 ENE 11 11 6 6 1027.7 1028.2 0.0
21/06:00am 6.0 2.9 5.6 97 0.2 NE 11 13 6 7 1027.5 1028.0 0.0
21/05:30am 6.2 3.5 5.6 96 0.3 ENE 9 11 5 6 1027.7 1028.2 0.0
21/05:00am 6.7 4.1 6.1 96 0.3 ENE 9 9 5 5 1027.6 1028.1 0.0
21/04:30am 7.0 4.8 6.3 95 0.3 E 7 9 4 5 1027.4 1027.8 0.0
21/04:00am 7.1 5.0 6.5 96 0.3 SSE 7 11 4 6 1027.5 1028.0 0.0
21/03:30am 6.5 3.8 5.8 95 0.3 S 9 13 5 7 1027.4 1027.8 0.0
21/03:00am 6.2 3.5 5.5 95 0.3 S 9 13 5 7 1027.4 1027.8 0.0
21/02:30am 7.2 4.6 6.1 93 0.5 SE 9 9 5 5 1027.5 1028.0 0.0
21/02:00am 7.1 4.9 6.0 93 0.5 SE 7 11 4 6 1027.6 1028.1 0.0
21/01:30am 7.3 4.7 6.1 92 0.6 SE 9 9 5 5 1027.6 1028.1 0.0
21/01:00am 7.3 5.1 6.2 93 0.5 SE 7 9 4 5 1027.6 1028.1 0.0
21/12:30am 6.6 4.2 5.1 90 0.7 SSE 7 9 4 5 1027.6 1028.1 0.0
21/12:00am 7.2 5.1 5.7 90 0.7 ESE 6 9 3 5 1027.7 1028.2 0.0
 
Date/Time
EST
Temp
°C
App
Temp
°C
Dew
Point
Rel
Hum
%
Delta-T
°C
Wind Press
QNH
hPa
Press
MSL
hPa
Rain
since 9 am
mm
Dir
 
Spd
km/h
Gust
km/h
Spd
kts
Gust
kts
20/11:30pm 7.3 5.0 5.6 89 0.8 ESE 7 9 4 5 1027.7 1028.2 0.0
20/11:00pm 7.2 4.9 5.5 89 0.8 ESE 7 9 4 5 1027.8 1028.3 0.0
20/10:30pm 7.2 4.5 5.7 90 0.7 ESE 9 11 5 6 1028.1 1028.5 0.0
20/10:00pm 7.0 4.3 5.5 90 0.7 ESE 9 11 5 6 1028.2 1028.6 0.0
20/09:30pm 6.8 3.6 5.3 90 0.7 ESE 11 11 6 6 1028.2 1028.6 0.0
20/09:00pm 7.2 4.1 5.5 89 0.8 ESE 11 13 6 7 1028.2 1028.6 0.0
20/08:30pm 7.6 4.5 5.4 86 1.0 ESE 11 13 6 7 1028.1 1028.5 0.0
20/08:00pm 7.5 3.5 4.8 83 1.2 SE 15 17 8 9 1028.1 1028.5 0.0
20/07:30pm 7.5 3.8 4.6 82 1.3 ESE 13 15 7 8 1028.0 1028.4 0.0
20/07:00pm 7.5 3.0 4.1 79 1.5 ESE 17 19 9 10 1027.8 1028.3 0.0
20/06:30pm 7.6 3.5 4.2 79 1.5 SE 15 17 8 9 1027.5 1028.0 0.0
20/06:00pm 8.3 4.3 4.7 78 1.6 ESE 15 17 8 9 1027.2 1027.6 0.0
20/05:30pm 8.7 5.1 4.9 77 1.7 ESE 13 17 7 9 1027.1 1027.5 0.0
20/05:00pm 9.4 5.8 4.8 73 2.1 ESE 13 17 7 9 1026.9 1027.3 0.0
20/04:30pm 9.9 5.4 4.3 68 2.5 ESE 17 20 9 11 1026.6 1027.0 0.0
20/04:00pm 10.4 7.2 5.0 69 2.5 SE 11 15 6 8 1026.5 1026.9 0.0
20/03:30pm 10.7 8.3 5.3 69 2.5 SE 7 11 4 6 1026.3 1026.7 0.0
20/03:00pm 10.9 8.1 5.2 68 2.6 SSE 9 13 5 7 1026.2 1026.6 0.0
20/02:30pm 10.4 7.6 5.2 70 2.4 SSE 9 13 5 7 1026.2 1026.6 0.0
20/02:00pm 10.7 8.6 5.9 72 2.2 ESE 6 7 3 4 1026.2 1026.6 0.0
20/01:30pm 10.2 7.7 5.0 70 2.4 SSE 7 13 4 7 1026.3 1026.7 0.0
20/01:00pm 9.5 6.3 5.1 74 2.0 SE 11 15 6 8 1026.6 1027.0 0.0
20/12:30pm 9.6 6.7 6.7 82 1.4 S 11 15 6 8 1026.8 1027.2 0.0
20/12:00pm 9.7 6.3 5.9 77 1.8 SSE 13 19 7 10 1027.1 1027.5 0.0
20/11:30am 9.3 5.1 7.3 87 1.0 S 19 22 10 12 1027.3 1027.7 0.0
20/11:00am 9.4 5.1 5.2 75 1.9 S 17 19 9 10 1027.3 1027.7 0.0
20/10:30am 9.5 7.0 4.7 72 2.2 S 7 11 4 6 1027.3 1027.7 0.0
20/10:00am 9.0 6.4 4.4 73 2.0 SSE 7 11 4 6 1027.2 1027.6 0.0
20/09:30am 8.3 5.4 4.9 79 1.5 S 9 13 5 7 1027.1 1027.5 0.0
20/09:00am 8.0 5.1 4.9 81 1.4 SSW 9 13 5 7 1027.0 1027.4 0.0
20/08:30am 7.2 6.1 4.9 85 1.0 CALM 0 4 0 2 1026.9 1027.3 0.0
20/08:00am 6.9 5.0 4.7 86 1.0 ESE 4 7 2 4 1026.6 1027.0 0.0
20/07:30am 6.4 3.9 4.9 90 0.7 SE 7 9 4 5 1026.3 1026.7 0.0
20/07:00am 7.0 4.4 4.1 82 1.3 S 7 9 4 5 1026.1 1026.5 0.0
20/06:30am 8.0 4.1 3.3 72 2.0 S 13 22 7 12 1025.6 1026.0 0.0
20/06:00am 7.4 3.2 3.8 78 1.6 SSW 15 17 8 9 1025.5 1025.9 0.0
20/05:30am 7.1 4.2 4.8 85 1.0 S 9 11 5 6 1025.5 1025.9 0.0
20/05:00am 6.9 4.0 4.6 85 1.0 S 9 11 5 6 1025.5 1025.9 0.0
20/04:30am 6.3 2.6 4.3 87 0.9 SSE 13 15 7 8 1025.4 1025.8 0.0
20/04:00am 6.7 2.5 3.9 82 1.2 SSW 15 17 8 9 1025.4 1025.8 0.0
20/03:30am 7.4 4.5 2.5 71 2.1 SSW 7 9 4 5 1025.3 1025.7 0.0
20/03:00am 7.4 4.2 2.9 73 1.9 SSW 9 13 5 7 1025.4 1025.8 0.0
20/02:30am 7.8 3.4 2.7 70 2.2 S 15 20 8 11 1025.5 1025.9 0.0
20/02:00am 7.6 3.5 2.3 69 2.2 S 13 17 7 9 1025.7 1026.1 0.0
20/01:30am 7.0 3.3 2.5 73 1.9 S 11 13 6 7 1025.8 1026.2 0.0
20/01:00am 7.1 2.6 2.4 72 2.0 S 15 19 8 10 1025.8 1026.2 0.0
20/12:30am 6.9 2.1 2.4 73 1.9 S 17 19 9 10 1025.9 1026.3 0.0
20/12:00am 6.8 1.9 2.3 73 1.9 S 17 20 9 11 1025.8 1026.2 0.0
 
Date/Time
EST
Temp
°C
App
Temp
°C
Dew
Point
Rel
Hum
%
Delta-T
°C
Wind Press
QNH
hPa
Press
MSL
hPa
Rain
since 9 am
mm
Dir
 
Spd
km/h
Gust
km/h
Spd
kts
Gust
kts
19/11:30pm 6.4 1.2 2.7 77 1.6 S 19 20 10 11 1025.8 1026.2 0.0
19/11:00pm 6.5 1.4 3.1 79 1.4 S 19 22 10 12 1025.8 1026.2 0.0
19/10:30pm 6.5 1.4 2.9 78 1.5 S 19 20 10 11 1026.0 1026.4 0.0
19/10:00pm 6.4 1.6 2.5 76 1.6 S 17 19 9 10 1025.9 1026.3 0.0
19/09:30pm 6.4 0.9 2.1 74 1.8 S 20 24 11 13 1025.9 1026.3 0.0
19/09:00pm 6.2 0.8 2.3 76 1.6 S 20 22 11 12 1025.8 1026.2 0.0
19/08:30pm 6.3 0.9 2.4 76 1.6 S 20 24 11 13 1025.7 1026.1 0.0
19/08:00pm 6.5 1.1 2.4 75 1.7 S 20 22 11 12 1025.6 1026.0 0.0
19/07:30pm 6.6 1.2 2.7 76 1.6 S 20 22 11 12 1025.4 1025.8 0.0
19/07:00pm 7.0 1.7 3.1 76 1.7 S 20 24 11 13 1025.3 1025.7 0.0
19/06:30pm 7.3 2.0 3.0 74 1.8 S 20 24 11 13 1025.0 1025.4 0.0
19/06:00pm 8.1 3.5 3.6 73 2.0 SSE 17 24 9 13 1024.7 1025.1 0.0
19/05:30pm 8.7 4.6 4.1 73 2.0 SSE 15 19 8 10 1024.4 1024.8 0.0
19/05:00pm 9.3 5.2 4.1 70 2.3 SSE 15 19 8 10 1024.3 1024.6 0.0
19/04:30pm 9.5 5.1 4.5 71 2.3 S 17 20 9 11 1024.2 1024.5 0.0
19/04:00pm 9.8 5.9 5.2 73 2.1 S 15 19 8 10 1024.2 1024.5 0.0
19/03:30pm 10.0 5.7 5.2 72 2.2 S 17 20 9 11 1024.1 1024.4 0.0
19/03:00pm 10.4 7.5 4.5 67 2.7 SSE 9 11 5 6 1024.0 1024.3 0.0
19/02:30pm 10.6 7.7 4.5 66 2.8 SE 9 17 5 9 1023.9 1024.2 0.0
19/02:00pm 10.8 7.6 4.9 67 2.7 SE 11 15 6 8 1023.7 1024.1 0.0
19/01:30pm 10.9 7.6 4.8 66 2.8 SE 11 15 6 8 1024.0 1024.3 0.0
19/01:00pm 11.0 8.5 4.7 65 2.9 S 7 11 4 6 1024.4 1024.8 0.0
19/12:30pm 10.4 7.4 4.3 66 2.8 S 9 15 5 8 1024.7 1025.1 0.0
19/12:00pm 10.5 6.9 4.9 68 2.6 S 13 17 7 9 1024.9 1025.3 0.0
19/11:30am 10.0 6.4 5.2 72 2.2 S 13 17 7 9 1025.1 1025.5 0.0
19/11:00am 9.6 5.7 5.2 74 2.0 S 15 19 8 10 1025.3 1025.7 0.0
19/10:30am 9.2 5.6 5.0 75 1.9 SSE 13 19 7 10 1025.2 1025.6 0.0
19/10:00am 8.9 6.2 5.8 81 1.4 S 9 13 5 7 1025.2 1025.6 0.0
19/09:30am 8.6 6.5 5.7 82 1.3 S 6 7 3 4 1025.2 1025.6 0.0
19/09:00am 8.2 4.8 5.8 85 1.1 S 13 17 7 9 1024.9 1025.3 0.0
19/08:30am 8.2 3.5 5.3 82 1.3 SSE 19 22 10 12 1024.6 1025.0 0.0
19/08:00am 8.0 2.7 5.1 82 1.3 SSE 22 24 12 13 1024.3 1024.6 0.0
19/07:30am 7.8 3.0 5.4 85 1.1 SSE 20 24 11 13 1024.1 1024.4 0.0
19/07:00am 7.8 3.2 5.4 85 1.1 SSE 19 22 10 12 1024.0 1024.3 0.0
19/06:30am 7.7 2.9 5.7 87 0.9 SSE 20 26 11 14 1023.7 1024.1 0.0
19/06:00am 7.7 2.9 5.8 88 0.9 S 20 26 11 14 1023.5 1023.9 0.0
19/05:30am 7.8 2.7 6.1 89 0.8 SSE 22 28 12 15 1023.2 1023.6 0.0
19/05:00am 8.0 3.0 6.3 89 0.8 SSE 22 26 12 14 1023.1 1023.5 0.0
19/04:30am 7.8 3.2 6.4 91 0.7 S 20 24 11 13 1023.0 1023.4 0.0
19/04:00am 7.8 3.4 6.7 93 0.5 S 19 20 10 11 1023.1 1023.5 0.0
19/03:30am 7.7 3.7 6.6 93 0.5 S 17 19 9 10 1023.1 1023.5 0.0
19/03:00am 7.7 4.0 6.5 92 0.6 S 15 17 8 9 1023.2 1023.6 0.0
19/02:30am 7.7 4.4 6.6 93 0.5 S 13 17 7 9 1023.3 1023.7 0.0
19/02:00am 7.5 3.8 6.4 93 0.5 S 15 17 8 9 1023.4 1023.8 0.0
19/01:30am 7.7 3.6 6.3 91 0.6 SSW 17 19 9 10 1023.4 1023.8 0.0
19/01:00am 8.0 4.7 6.5 90 0.7 S 13 15 7 8 1023.5 1023.9 0.0
19/12:30am 7.9 4.6 6.5 91 0.7 S 13 17 7 9 1023.5 1023.9 0.0
19/12:00am 7.9 4.6 6.5 91 0.6 S 13 15 7 8 1023.5 1023.9 0.0
 
Date/Time
EST
Temp
°C
App
Temp
°C
Dew
Point
Rel
Hum
%
Delta-T
°C
Wind Press
QNH
hPa
Press
MSL
hPa
Rain
since 9 am
mm
Dir
 
Spd
km/h
Gust
km/h
Spd
kts
Gust
kts
18/11:30pm 7.7 4.0 6.3 91 0.6 S 15 15 8 8 1023.6 1024.0 0.0
18/11:00pm 8.1 4.5 6.7 91 0.7 S 15 17 8 9 1023.6 1024.0 0.0
18/10:30pm 8.3 4.7 6.8 90 0.7 S 15 19 8 10 1023.6 1024.0 0.0
18/10:00pm 8.3 4.7 6.8 90 0.7 S 15 17 8 9 1023.5 1023.9 0.0
18/09:30pm 8.3 4.7 6.6 89 0.8 S 15 17 8 9 1023.4 1023.8 0.0
18/09:00pm 8.4 4.7 6.4 87 0.9 S 15 17 8 9 1023.2 1023.6 0.0
18/08:30pm 8.0 4.6 6.1 88 0.9 S 13 15 7 8 1023.0 1023.4 0.0
18/08:00pm 7.9 4.5 5.9 87 0.9 S 13 15 7 8 1022.8 1023.2 0.0
18/07:30pm 8.0 4.6 6.0 87 0.9 S 13 15 7 8 1022.6 1023.0 0.0
18/07:00pm 8.0 4.6 5.8 86 1.0 S 13 17 7 9 1022.4 1022.8 0.0
18/06:30pm 8.2 4.5 6.3 88 0.9 S 15 17 8 9 1022.2 1022.6 0.0

Other Formats:

Comma delimited format used in spreadsheet applications
http://www.bom.gov.au/fwo/IDV60801/IDV60801.95845.axf

JavaScript Object Notation format (JSON) in row-major order
http://www.bom.gov.au/fwo/IDV60801/IDV60801.95845.json